createdAt,value
2022-12-18T00:01:26.616Z,-3.08
2022-12-18T00:03:55.732Z,-3.14
2022-12-18T00:06:24.014Z,-3.17
2022-12-18T00:08:51.873Z,-3.18
2022-12-18T00:11:22.665Z,-3.18
2022-12-18T00:13:50.232Z,-3.19
2022-12-18T00:16:22.899Z,-3.20
2022-12-18T00:18:55.783Z,-3.20
2022-12-18T00:21:22.958Z,-3.23
2022-12-18T00:23:51.264Z,-3.25
2022-12-18T00:26:25.632Z,-3.25
2022-12-18T00:28:52.884Z,-3.28
2022-12-18T00:31:26.027Z,-3.27
2022-12-18T00:33:56.630Z,-3.27
2022-12-18T00:36:27.891Z,-3.30
2022-12-18T00:38:56.853Z,-3.32
2022-12-18T00:41:42.658Z,-3.33
2022-12-18T00:44:12.743Z,-3.35
2022-12-18T00:46:39.532Z,-3.38
2022-12-18T00:49:07.701Z,-3.39
2022-12-18T00:51:34.519Z,-3.40
2022-12-18T00:54:01.580Z,-3.41
2022-12-18T00:56:28.430Z,-3.41
2022-12-18T00:58:55.247Z,-3.42
2022-12-18T01:01:22.160Z,-3.43
2022-12-18T01:03:49.249Z,-3.45
2022-12-18T01:06:17.175Z,-3.47
2022-12-18T01:08:44.591Z,-3.46
2022-12-18T01:11:15.130Z,-3.50
2022-12-18T01:13:42.189Z,-3.49
2022-12-18T01:16:12.345Z,-3.50
2022-12-18T01:18:39.293Z,-3.53
2022-12-18T01:21:12.530Z,-3.52
2022-12-18T01:23:39.703Z,-3.54
2022-12-18T01:26:16.971Z,-3.53
2022-12-18T01:28:44.982Z,-3.54
2022-12-18T01:31:22.156Z,-3.53
2022-12-18T01:33:49.350Z,-3.54
2022-12-18T01:36:22.737Z,-3.52
2022-12-18T01:38:50.880Z,-3.53
2022-12-18T01:41:21.484Z,-3.54
2022-12-18T01:43:53.706Z,-3.54
2022-12-18T01:46:23.306Z,-3.55
2022-12-18T01:48:57.990Z,-3.56
2022-12-18T01:51:26.739Z,-3.58
2022-12-18T01:53:53.624Z,-3.61
2022-12-18T01:56:22.090Z,-3.63
2022-12-18T01:59:05.884Z,-3.63
2022-12-18T02:01:34.257Z,-3.66
2022-12-18T02:04:20.873Z,-3.67
2022-12-18T02:06:54.336Z,-3.70
2022-12-18T02:10:02.413Z,-3.72
2022-12-18T02:12:58.343Z,-3.73
2022-12-18T02:15:56.743Z,-3.76
2022-12-18T02:18:36.172Z,-3.78
2022-12-18T02:21:45.647Z,-3.79
2022-12-18T02:24:41.936Z,-3.83
2022-12-18T02:27:10.840Z,-3.85
2022-12-18T02:29:57.603Z,-3.84
2022-12-18T02:32:58.618Z,-3.87
2022-12-18T02:35:30.176Z,-3.88
2022-12-18T02:37:58.591Z,-3.89
2022-12-18T02:40:28.855Z,-3.88
2022-12-18T02:42:55.945Z,-3.89
2022-12-18T02:45:22.749Z,-3.90
2022-12-18T02:47:51.356Z,-3.90
2022-12-18T02:50:31.234Z,-3.88
2022-12-18T02:53:21.496Z,-3.89
2022-12-18T02:56:05.131Z,-3.87
2022-12-18T02:58:53.446Z,-3.89
2022-12-18T03:01:57.141Z,-3.91
2022-12-18T03:04:32.035Z,-3.90
2022-12-18T03:07:05.011Z,-3.90
2022-12-18T03:09:43.857Z,-3.87
2022-12-18T03:12:31.874Z,-3.85
2022-12-18T03:15:22.656Z,-3.83
2022-12-18T03:18:00.971Z,-3.80
2022-12-18T03:20:31.169Z,-3.79
2022-12-18T03:23:07.408Z,-3.75
2022-12-18T03:25:39.440Z,-3.71
2022-12-18T03:28:09.987Z,-3.67
2022-12-18T03:30:40.512Z,-3.64
2022-12-18T03:33:15.808Z,-3.61
2022-12-18T03:35:44.145Z,-3.59
2022-12-18T03:38:11.684Z,-3.57
2022-12-18T03:40:43.999Z,-3.52
2022-12-18T03:43:53.902Z,-3.48
2022-12-18T03:46:30.957Z,-3.46
2022-12-18T03:49:07.807Z,-3.45
2022-12-18T03:52:00.896Z,-3.42
2022-12-18T03:54:29.205Z,-3.41
2022-12-18T03:57:08.161Z,-3.40
2022-12-18T03:59:37.478Z,-3.40
2022-12-18T04:02:07.644Z,-3.37
2022-12-18T04:04:36.904Z,-3.36
2022-12-18T04:07:04.362Z,-3.35
2022-12-18T04:09:33.154Z,-3.35
2022-12-18T04:11:59.901Z,-3.34
2022-12-18T04:14:26.875Z,-3.33
2022-12-18T04:16:53.648Z,-3.34
2022-12-18T04:19:20.449Z,-3.35
2022-12-18T04:21:47.242Z,-3.38
2022-12-18T04:24:14.046Z,-3.40
2022-12-18T04:26:40.847Z,-3.43
2022-12-18T04:29:07.645Z,-3.44
2022-12-18T04:31:34.496Z,-3.46
2022-12-18T04:34:01.434Z,-3.51
2022-12-18T04:36:28.411Z,-3.52
2022-12-18T04:38:55.198Z,-3.55
2022-12-18T04:41:22.029Z,-3.56
2022-12-18T04:43:48.947Z,-3.59
2022-12-18T04:46:15.825Z,-3.60
2022-12-18T04:48:42.617Z,-3.62
2022-12-18T04:51:09.456Z,-3.64
2022-12-18T04:53:36.575Z,-3.66
2022-12-18T04:56:09.966Z,-3.67
2022-12-18T04:58:38.219Z,-3.72
2022-12-18T05:01:05.785Z,-3.75
2022-12-18T05:03:32.649Z,-3.78
2022-12-18T05:05:59.478Z,-3.80
2022-12-18T05:08:26.376Z,-3.83
2022-12-18T05:11:04.375Z,-3.85
2022-12-18T05:13:33.394Z,-3.88
2022-12-18T05:16:00.513Z,-3.91
2022-12-18T05:18:28.067Z,-3.92
2022-12-18T05:20:55.798Z,-3.94
2022-12-18T05:23:24.937Z,-3.98
2022-12-18T05:25:56.855Z,-3.99
2022-12-18T05:28:25.762Z,-4.02
2022-12-18T05:30:55.609Z,-4.02
2022-12-18T05:33:24.980Z,-4.03
2022-12-18T05:35:53.836Z,-4.03
2022-12-18T05:38:22.283Z,-4.02
2022-12-18T05:40:50.586Z,-4.02
2022-12-18T05:43:21.195Z,-4.01
2022-12-18T05:45:49.268Z,-4.02
2022-12-18T05:48:17.121Z,-4.02
2022-12-18T05:50:46.901Z,-4.02
2022-12-18T05:53:16.504Z,-4.03
2022-12-18T05:55:44.660Z,-4.03
2022-12-18T05:58:13.686Z,-4.06
2022-12-18T06:00:46.416Z,-4.07
2022-12-18T06:03:14.794Z,-4.11
2022-12-18T06:05:45.543Z,-4.13
2022-12-18T06:08:13.984Z,-4.16
2022-12-18T06:10:42.048Z,-4.17
2022-12-18T06:13:09.086Z,-4.18
2022-12-18T06:15:38.454Z,-4.22
2022-12-18T06:18:05.395Z,-4.23
2022-12-18T06:20:33.815Z,-4.25
2022-12-18T06:23:01.166Z,-4.26
2022-12-18T06:25:28.021Z,-4.27
2022-12-18T06:27:54.932Z,-4.27
2022-12-18T06:30:21.783Z,-4.27
2022-12-18T06:32:56.114Z,-4.29
2022-12-18T06:35:23.995Z,-4.30
2022-12-18T06:37:50.825Z,-4.32
2022-12-18T06:40:17.696Z,-4.32
2022-12-18T06:42:44.517Z,-4.33
2022-12-18T06:45:12.327Z,-4.34
2022-12-18T06:47:39.201Z,-4.35
2022-12-18T06:50:06.675Z,-4.35
2022-12-18T06:52:34.449Z,-4.34
2022-12-18T06:55:01.785Z,-4.36
2022-12-18T06:57:28.616Z,-4.36
2022-12-18T06:59:55.548Z,-4.38
2022-12-18T07:02:22.438Z,-4.38
2022-12-18T07:04:49.313Z,-4.39
2022-12-18T07:07:16.102Z,-4.37
2022-12-18T07:09:43.043Z,-4.40
2022-12-18T07:12:09.863Z,-4.40
2022-12-18T07:14:36.630Z,-4.41
2022-12-18T07:17:03.450Z,-4.41
2022-12-18T07:19:30.758Z,-4.42
2022-12-18T07:21:57.887Z,-4.43
2022-12-18T07:24:24.650Z,-4.44
2022-12-18T07:26:51.538Z,-4.45
2022-12-18T07:29:18.441Z,-4.46
2022-12-18T07:31:45.647Z,-4.47
2022-12-18T07:34:14.521Z,-4.47
2022-12-18T07:36:41.603Z,-4.47
2022-12-18T07:39:08.680Z,-4.48
2022-12-18T07:41:35.451Z,-4.47
2022-12-18T07:44:02.309Z,-4.47
2022-12-18T07:46:29.069Z,-4.46
2022-12-18T07:48:55.823Z,-4.45
2022-12-18T07:51:22.815Z,-4.43
2022-12-18T07:53:51.806Z,-4.41
2022-12-18T07:56:29.047Z,-4.39
2022-12-18T07:58:57.348Z,-4.37
2022-12-18T08:01:24.346Z,-4.33
2022-12-18T08:03:52.472Z,-4.29
2022-12-18T08:06:23.997Z,-4.25
2022-12-18T08:08:56.344Z,-4.19
2022-12-18T08:11:25.129Z,-4.14
2022-12-18T08:13:52.176Z,-4.09
2022-12-18T08:16:19.308Z,-4.02
2022-12-18T08:18:46.872Z,-3.96
2022-12-18T08:21:23.933Z,-3.89
2022-12-18T08:23:52.850Z,-3.83
2022-12-18T08:26:20.996Z,-3.76
2022-12-18T08:28:48.308Z,-3.68
2022-12-18T08:31:15.889Z,-3.62
2022-12-18T08:33:43.717Z,-3.55
2022-12-18T08:36:11.639Z,-3.47
2022-12-18T08:38:38.504Z,-3.40
2022-12-18T08:41:11.846Z,-3.33
2022-12-18T08:43:57.513Z,-3.28
2022-12-18T08:46:27.538Z,-3.23
2022-12-18T08:48:56.810Z,-3.18
2022-12-18T08:51:23.558Z,-3.10
2022-12-18T08:53:50.459Z,-3.03
2022-12-18T08:56:17.712Z,-2.97
2022-12-18T08:58:44.911Z,-2.92
2022-12-18T09:01:14.415Z,-2.84
2022-12-18T09:03:41.728Z,-2.76
2022-12-18T09:06:09.077Z,-2.69
2022-12-18T09:08:37.716Z,-2.60
2022-12-18T09:11:04.951Z,-2.53
2022-12-18T09:13:31.722Z,-2.42
2022-12-18T09:15:58.578Z,-2.34
2022-12-18T09:18:25.940Z,-2.26
2022-12-18T09:20:53.725Z,-2.18
2022-12-18T09:23:21.631Z,-2.08
2022-12-18T09:25:49.160Z,-1.98
2022-12-18T09:28:19.263Z,-1.89
2022-12-18T09:30:49.882Z,-1.78
2022-12-18T09:33:17.970Z,-1.70
2022-12-18T09:35:46.713Z,-1.63
2022-12-18T09:38:19.638Z,-1.54
2022-12-18T09:40:51.828Z,-1.48
2022-12-18T09:43:28.889Z,-1.40
2022-12-18T09:46:02.855Z,-1.33
2022-12-18T09:48:38.370Z,-1.24
2022-12-18T09:51:13.736Z,-1.14
2022-12-18T09:53:46.478Z,-1.06
2022-12-18T09:56:23.440Z,-0.96
2022-12-18T09:58:59.493Z,-0.88
2022-12-18T10:01:36.337Z,-0.83
2022-12-18T10:04:10.506Z,-0.78
2022-12-18T10:06:46.795Z,-0.70
2022-12-18T10:09:28.433Z,-0.66
2022-12-18T10:12:26.319Z,-0.62
2022-12-18T10:15:11.441Z,-0.59
2022-12-18T10:17:59.103Z,-0.54
2022-12-18T10:20:38.520Z,-0.50
2022-12-18T10:23:41.417Z,-0.45
2022-12-18T10:26:15.384Z,-0.42
2022-12-18T10:28:44.659Z,-0.38
2022-12-18T10:31:25.486Z,-0.33
2022-12-18T10:33:55.134Z,-0.32
2022-12-18T10:36:25.557Z,-0.30
2022-12-18T10:38:52.588Z,-0.26
2022-12-18T10:41:23.020Z,-0.21
2022-12-18T10:44:19.920Z,-0.13
2022-12-18T10:46:50.063Z,-0.07
2022-12-18T10:49:34.546Z,0.02
2022-12-18T10:52:25.556Z,0.06
2022-12-18T10:55:04.782Z,0.10
2022-12-18T10:57:42.359Z,0.15
2022-12-18T11:00:31.579Z,0.22
2022-12-18T11:02:59.172Z,0.24
2022-12-18T11:05:27.396Z,0.29
2022-12-18T11:07:55.232Z,0.34
2022-12-18T11:10:31.041Z,0.40
2022-12-18T11:13:21.273Z,0.43
2022-12-18T11:15:49.270Z,0.44
2022-12-18T11:18:37.224Z,0.50
2022-12-18T11:21:22.117Z,0.52
2022-12-18T11:23:54.162Z,0.53
2022-12-18T11:26:22.424Z,0.54
2022-12-18T11:28:53.768Z,0.59
2022-12-18T11:31:23.315Z,0.60
2022-12-18T11:36:49.131Z,0.65
2022-12-18T11:39:45.057Z,0.71
2022-12-18T11:42:48.126Z,0.74
2022-12-18T11:45:14.796Z,0.77
2022-12-18T11:48:18.006Z,0.84
2022-12-18T11:50:58.068Z,0.95
2022-12-18T11:53:27.645Z,1.02
2022-12-18T11:56:27.208Z,1.07
2022-12-18T11:59:36.421Z,1.12
2022-12-18T12:02:38.600Z,1.13
2022-12-18T12:05:27.006Z,1.16
2022-12-18T12:08:11.684Z,1.21
2022-12-18T12:10:56.374Z,1.26
2022-12-18T12:13:56.971Z,1.30
2022-12-18T12:16:38.789Z,1.32
2022-12-18T12:19:36.095Z,1.37
2022-12-18T12:22:24.583Z,1.38
2022-12-18T12:24:57.127Z,1.42
2022-12-18T12:28:06.421Z,1.43
2022-12-18T12:30:48.204Z,1.42
2022-12-18T12:33:44.740Z,1.40
2022-12-18T12:36:56.267Z,1.38
2022-12-18T12:39:40.586Z,1.35
2022-12-18T12:42:34.984Z,1.32
2022-12-18T12:45:06.342Z,1.28
2022-12-18T12:47:43.018Z,1.29
2022-12-18T12:50:22.121Z,1.29
2022-12-18T12:52:56.785Z,1.29
2022-12-18T12:55:27.950Z,1.28
2022-12-18T12:58:35.312Z,1.28
2022-12-18T13:01:35.850Z,1.23
2022-12-18T13:04:33.735Z,1.21
2022-12-18T13:07:27.963Z,1.19
2022-12-18T13:10:27.270Z,1.19
2022-12-18T13:12:56.473Z,1.18
2022-12-18T13:15:46.247Z,1.18
2022-12-18T13:18:25.044Z,1.18
2022-12-18T13:21:25.652Z,1.17
2022-12-18T13:23:52.676Z,1.15
2022-12-18T13:26:26.326Z,1.14
2022-12-18T13:28:57.467Z,1.14
2022-12-18T13:31:50.345Z,1.12
2022-12-18T13:34:31.037Z,1.12
2022-12-18T13:37:33.261Z,1.09
2022-12-18T13:40:00.097Z,1.06
2022-12-18T13:42:58.722Z,1.06
2022-12-18T13:45:40.125Z,1.05
2022-12-18T13:48:26.812Z,1.05
2022-12-18T13:51:03.001Z,1.04
2022-12-18T13:53:40.945Z,1.05
2022-12-18T13:56:08.207Z,1.05
2022-12-18T13:58:35.541Z,1.06
2022-12-18T14:01:05.469Z,1.05
2022-12-18T14:03:32.527Z,1.06
2022-12-18T14:06:08.009Z,1.05
2022-12-18T14:08:40.707Z,1.05
2022-12-18T14:11:20.579Z,1.05
2022-12-18T14:13:48.555Z,1.04
2022-12-18T14:16:17.813Z,1.03
2022-12-18T14:19:00.954Z,1.04
2022-12-18T14:21:39.395Z,1.01
2022-12-18T14:24:09.890Z,0.99
2022-12-18T14:26:36.675Z,0.98
2022-12-18T14:29:31.226Z,0.98
2022-12-18T14:32:13.336Z,0.90
2022-12-18T14:34:51.485Z,0.86
2022-12-18T14:37:24.072Z,0.85
2022-12-18T14:40:10.464Z,0.86
2022-12-18T14:42:38.178Z,0.84
2022-12-18T14:45:43.153Z,0.82
2022-12-18T14:48:23.687Z,0.79
2022-12-18T14:51:06.987Z,0.76
2022-12-18T14:53:40.747Z,0.74
2022-12-18T14:56:16.148Z,0.68
2022-12-18T14:58:53.132Z,0.63
2022-12-18T15:01:27.705Z,0.59
2022-12-18T15:03:56.310Z,0.58
2022-12-18T15:06:38.724Z,0.58
2022-12-18T15:09:24.639Z,0.54
2022-12-18T15:11:58.568Z,0.53
2022-12-18T15:14:32.970Z,0.49
2022-12-18T15:17:03.726Z,0.44
2022-12-18T15:19:43.844Z,0.42
2022-12-18T15:22:27.642Z,0.42
2022-12-18T15:24:56.504Z,0.42
2022-12-18T15:27:28.797Z,0.44
2022-12-18T15:30:10.787Z,0.45
2022-12-18T15:32:42.751Z,0.45
2022-12-18T15:35:19.816Z,0.45
2022-12-18T15:37:47.407Z,0.44
2022-12-18T15:40:21.219Z,0.44
2022-12-18T15:43:08.506Z,0.46
2022-12-18T15:45:35.344Z,0.43
2022-12-18T15:48:22.330Z,0.43
2022-12-18T15:50:53.926Z,0.42
2022-12-18T15:53:20.849Z,0.41
2022-12-18T15:56:05.997Z,0.41
2022-12-18T15:58:34.180Z,0.38
2022-12-18T16:01:01.869Z,0.36
2022-12-18T16:03:28.906Z,0.36
2022-12-18T16:05:55.748Z,0.37
2022-12-18T16:08:24.040Z,0.34
2022-12-18T16:10:50.803Z,0.34
2022-12-18T16:13:20.438Z,0.34
2022-12-18T16:15:47.395Z,0.33
2022-12-18T16:18:14.288Z,0.32
2022-12-18T16:20:41.528Z,0.31
2022-12-18T16:23:08.534Z,0.33
2022-12-18T16:25:35.425Z,0.35
2022-12-18T16:28:02.384Z,0.37
2022-12-18T16:30:35.442Z,0.40
2022-12-18T16:33:05.740Z,0.42
2022-12-18T16:35:34.701Z,0.43
2022-12-18T16:38:01.768Z,0.45
2022-12-18T16:40:28.619Z,0.47
2022-12-18T16:42:55.409Z,0.49
2022-12-18T16:45:22.222Z,0.50
2022-12-18T16:47:49.077Z,0.52
2022-12-18T16:50:16.034Z,0.55
2022-12-18T16:52:42.897Z,0.55
2022-12-18T16:55:09.928Z,0.56
2022-12-18T16:57:36.714Z,0.57
2022-12-18T17:00:06.173Z,0.57
2022-12-18T17:02:33.881Z,0.58
2022-12-18T17:05:01.358Z,0.58
2022-12-18T17:07:28.923Z,0.60
2022-12-18T17:09:56.141Z,0.61
2022-12-18T17:12:23.632Z,0.62
2022-12-18T17:14:50.612Z,0.63
2022-12-18T17:17:22.303Z,0.64
2022-12-18T17:19:52.161Z,0.64
2022-12-18T17:22:20.784Z,0.65
2022-12-18T17:24:47.985Z,0.65
2022-12-18T17:27:15.411Z,0.65
2022-12-18T17:29:47.208Z,0.66
2022-12-18T17:32:15.430Z,0.67
2022-12-18T17:34:42.228Z,0.69
2022-12-18T17:37:09.199Z,0.69
2022-12-18T17:39:36.063Z,0.69
2022-12-18T17:42:02.981Z,0.71
2022-12-18T17:44:29.787Z,0.72
2022-12-18T17:46:56.633Z,0.73
2022-12-18T17:49:23.542Z,0.73
2022-12-18T17:51:50.563Z,0.75
2022-12-18T17:54:17.582Z,0.76
2022-12-18T17:56:45.166Z,0.77
2022-12-18T17:59:12.433Z,0.76
2022-12-18T18:01:44.400Z,0.78
2022-12-18T18:04:12.991Z,0.78
2022-12-18T18:06:39.876Z,0.79
2022-12-18T18:09:15.947Z,0.80
2022-12-18T18:12:03.400Z,0.80
2022-12-18T18:14:30.355Z,0.81
2022-12-18T18:16:58.226Z,0.83
2022-12-18T18:19:30.920Z,0.86
2022-12-18T18:21:57.685Z,0.87
2022-12-18T18:24:25.673Z,0.89
2022-12-18T18:26:52.939Z,0.89
2022-12-18T18:29:23.601Z,0.90
2022-12-18T18:31:52.743Z,0.92
2022-12-18T18:34:23.161Z,0.93
2022-12-18T18:36:50.578Z,0.93
2022-12-18T18:39:18.382Z,0.95
2022-12-18T18:41:46.863Z,0.98
2022-12-18T18:44:20.586Z,1.00
2022-12-18T18:46:56.512Z,1.00
2022-12-18T18:49:26.984Z,1.01
2022-12-18T18:51:55.108Z,1.02
2022-12-18T18:54:22.130Z,1.03
2022-12-18T18:59:36.969Z,1.07
2022-12-18T19:02:04.216Z,1.08
2022-12-18T19:04:33.718Z,1.09
2022-12-18T19:07:00.792Z,1.10
2022-12-18T19:09:28.643Z,1.10
2022-12-18T19:12:14.893Z,1.11
2022-12-18T19:14:42.020Z,1.12
2022-12-18T19:17:09.228Z,1.14
2022-12-18T19:19:36.023Z,1.16
2022-12-18T19:22:03.356Z,1.19
2022-12-18T19:24:30.643Z,1.20
2022-12-18T19:26:58.180Z,1.21
2022-12-18T19:29:25.188Z,1.24
2022-12-18T19:31:52.020Z,1.25
2022-12-18T19:34:18.903Z,1.28
2022-12-18T19:36:46.484Z,1.29
2022-12-18T19:39:16.621Z,1.32
2022-12-18T19:41:44.427Z,1.33
2022-12-18T19:44:16.876Z,1.37
2022-12-18T19:46:46.090Z,1.38
2022-12-18T19:49:17.501Z,1.41
2022-12-18T19:51:45.405Z,1.42
2022-12-18T19:54:17.018Z,1.46
2022-12-18T19:56:44.368Z,1.47
2022-12-18T19:59:11.164Z,1.49
2022-12-18T20:01:38.166Z,1.51
2022-12-18T20:04:05.370Z,1.52
2022-12-18T20:06:47.600Z,1.55
2022-12-18T20:09:14.640Z,1.55
2022-12-18T20:11:42.355Z,1.56
2022-12-18T20:14:11.380Z,1.57
2022-12-18T20:16:38.712Z,1.57
2022-12-18T20:19:06.672Z,1.55
2022-12-18T20:21:34.192Z,1.55
2022-12-18T20:24:01.976Z,1.56
2022-12-18T20:26:29.234Z,1.56
2022-12-18T20:28:56.524Z,1.56
2022-12-18T20:31:24.315Z,1.57
2022-12-18T20:33:52.077Z,1.58
2022-12-18T20:36:22.405Z,1.57
2022-12-18T20:38:57.298Z,1.58
2022-12-18T20:41:31.028Z,1.58
2022-12-18T20:44:09.859Z,1.58
2022-12-18T20:47:07.457Z,1.61
2022-12-18T20:49:35.551Z,1.62
2022-12-18T20:52:05.935Z,1.63
2022-12-18T20:54:32.721Z,1.63
2022-12-18T20:56:59.502Z,1.63
2022-12-18T20:59:26.596Z,1.65
2022-12-18T21:01:54.899Z,1.66
2022-12-18T21:04:22.544Z,1.66
2022-12-18T21:06:57.828Z,1.68
2022-12-18T21:09:30.004Z,1.68
2022-12-18T21:12:34.059Z,1.70
2022-12-18T21:15:09.905Z,1.69
2022-12-18T21:17:44.173Z,1.70
2022-12-18T21:20:17.561Z,1.70
2022-12-18T21:22:45.439Z,1.70
2022-12-18T21:25:12.237Z,1.71
2022-12-18T21:27:38.997Z,1.71
2022-12-18T21:30:06.742Z,1.73
2022-12-18T21:32:33.840Z,1.73
2022-12-18T21:35:00.810Z,1.74
2022-12-18T21:37:27.598Z,1.75
2022-12-18T21:39:54.403Z,1.78
2022-12-18T21:42:39.538Z,1.78
2022-12-18T21:45:06.990Z,1.80
2022-12-18T21:47:33.883Z,1.81
2022-12-18T21:50:00.685Z,1.83
2022-12-18T21:52:31.546Z,1.83
2022-12-18T21:55:07.855Z,1.84
2022-12-18T21:57:35.970Z,1.86
2022-12-18T22:00:03.517Z,1.87
2022-12-18T22:02:30.599Z,1.89
2022-12-18T22:04:57.531Z,1.92
2022-12-18T22:07:24.464Z,1.93
2022-12-18T22:09:51.212Z,1.95
2022-12-18T22:12:35.355Z,1.96
2022-12-18T22:15:04.918Z,1.98
2022-12-18T22:17:31.952Z,1.98
2022-12-18T22:19:58.712Z,2.00
2022-12-18T22:22:25.576Z,1.99
2022-12-18T22:24:52.387Z,1.98
2022-12-18T22:27:19.144Z,1.98
2022-12-18T22:30:03.972Z,1.97
2022-12-18T22:32:35.993Z,1.97
2022-12-18T22:35:09.473Z,1.97
2022-12-18T22:37:39.619Z,1.96
2022-12-18T22:40:07.517Z,1.96
2022-12-18T22:42:35.291Z,1.97
2022-12-18T22:45:02.077Z,1.98
2022-12-18T22:47:30.351Z,1.99
2022-12-18T22:49:58.180Z,2.01
2022-12-18T22:52:25.372Z,2.02
2022-12-18T22:54:54.127Z,2.03
2022-12-18T22:57:22.773Z,2.02
2022-12-18T22:59:50.855Z,2.04
2022-12-18T23:02:18.891Z,2.04
2022-12-18T23:04:46.007Z,2.05
2022-12-18T23:07:12.792Z,2.06
2022-12-18T23:09:39.740Z,2.09
2022-12-18T23:12:07.203Z,2.09
2022-12-18T23:14:34.098Z,2.07
2022-12-18T23:17:00.891Z,2.08
2022-12-18T23:19:27.676Z,2.09
2022-12-18T23:21:57.130Z,2.12
2022-12-18T23:24:28.938Z,2.14
2022-12-18T23:26:59.422Z,2.15
2022-12-18T23:29:26.194Z,2.17
2022-12-18T23:31:53.032Z,2.17
2022-12-18T23:34:19.807Z,2.18
2022-12-18T23:36:47.484Z,2.21
2022-12-18T23:39:29.103Z,2.25
2022-12-18T23:42:00.446Z,2.30
2022-12-18T23:44:27.625Z,2.32
2022-12-18T23:46:55.113Z,2.37
2022-12-18T23:49:22.144Z,2.41
2022-12-18T23:51:49.149Z,2.43
2022-12-18T23:54:16.221Z,2.46
2022-12-18T23:56:43.188Z,2.52
2022-12-18T23:59:10.222Z,2.55
